KFET/FET METAR and TAF weather

Enter ICAO airport designator
Station Type Date Time Source
KFET METAR 2020/04/06 10:55 UTC NOAA

KFET 061055Z AUTO 14009KT 10SM OVC036 11/09 A2987 RMK AO2 T01120091


Station Type Date Time Source
KFET Decoded METAR 2020/04/06 10:55 UTC NOAA

Fremont Municipal Airport, NE, United States (KFET) 41-27N 096-31W
Apr 06, 2020 - 06:55 AM EDT / 2020.04.06 1055 UTC
Wind: from the SE (140 degrees) at 10 MPH (9 KT):0
Visibility: 10 mile(s):0
Sky conditions: overcast
Temperature: 52.2 F (11.2 C)
Dew Point: 48.4 F (9.1 C)
Relative Humidity: 86%
Pressure (altimeter): 29.87 in. Hg (1011 hPa)
ob: KFET 061055Z AUTO 14009KT 10SM OVC036 11/09 A2987 RMK AO2 T01120091
cycle: 11

Station Type Date Time Source
KFET TAF UTC NOAA

Error!

Example: see airport list